Nearby METAR Reports

 

KNTU - NAS Oceana, Virginia Beach, Virginia, USA
Distance from station: N 3.2mi, 5.1km
Updated: Tue, 31-Mar-2020 10:56am EDT
Overcast
Overcast
 Wind from NE
Wind: NE 9 mph , 15 km/h
Temperature: 50°F , 10°C
Wind Chill: 46°F , 8°C
Dew Point: 45°F , 7°C
Humidity: 82%
Barometer: 29.96 inHg , 1014.6 hPa
Clouds: Overcast
Visibility: 10 miles , 16 km
Cloud details: Partly cloudy 1200 ft
Mostly cloudy 8000 ft
Overcast 20000 ft
2020/03/31 14:56 KNTU 311456Z 05008KT 10SM SCT012 BKN080 OVC200 10/07 A2996 RMK AO2 SLP147 T01000067 58008
KNFE - Fentress NALF, Virginia Beach Virginia, USA
Distance from station: SW 7.6mi, 12.2km
Updated: Tue, 31-Mar-2020 10:56am EDT
Overcast
Overcast
 Wind from ENE
Wind: ENE 8 mph , 13 km/h
Temperature: 55°F , 13°C
Dew Point: 43°F , 6°C
Humidity: 63%
Barometer: 29.96 inHg , 1014.6 hPa
Clouds: Overcast
Visibility: 10 miles , 16 km
Cloud details: Overcast 11000 ft
2020/03/31 14:56 KNFE 311456Z AUTO 06007KT 10SM OVC110 13/06 A2996 RMK AO2 SLP147 T01280061 58012
 
KORF - Norfolk International, Norfolk, Virginia, USA
Distance from station: NW 12.2mi, 19.6km
Updated: Tue, 31-Mar-2020 10:51am EDT
Mostly cloudy
Mostly cloudy
 Wind from ENE
Wind: ENE 9 mph , 15 km/h
Temperature: 52°F , 11°C
Dew Point: 45°F , 7°C
Humidity: 77%
Barometer: 29.96 inHg , 1014.6 hPa
Clouds: Mostly cloudy
Visibility: 10 miles , 16 km
Cloud details: Mostly cloudy 1100 ft
2020/03/31 14:51 KORF 311451Z 07008KT 10SM BKN011 11/07 A2996 RMK AO2 SLP146 T01110072 58007
KCPK - Cheasapeak Municipal, Cheasapeak, Virginia, USA
Distance from station: SW 17.2mi, 27.7km
Updated: Tue, 31-Mar-2020 11:35am EDT
Overcast
Overcast
 Wind from NE
Wind: NE 10 mph , 17 km/h
Temperature: 54°F , 12°C
Dew Point: 41°F , 5°C
Humidity: 63%
Barometer: 29.96 inHg , 1014.6 hPa
Clouds: Overcast
Visibility: 10 miles , 16 km
Cloud details: Overcast 10000 ft
2020/03/31 15:35 KCPK 311535Z AUTO 05009KT 10SM OVC100 12/05 A2996 RMK AO2 T01150046
 
KNGU - NAS Norfolk, Norfolk, Virginia, USA
Distance from station: NW 17.7mi, 28.5km
Updated: Tue, 31-Mar-2020 10:59am EDT
Overcast
Overcast
 Wind from ENE
Wind: ENE 10 mph , 17 km/h
Temperature: 54°F , 12°C
Dew Point: 46°F , 8°C
Humidity: 77%
Barometer: 29.97 inHg , 1014.9 hPa
Clouds: Overcast
Visibility: 10 miles , 16 km
Cloud details: Partly cloudy 1300 ft
Mostly cloudy 15000 ft
Overcast 25000 ft
2020/03/31 14:59 KNGU 311459Z 07009KT 10SM SCT013 BKN150 OVC250 12/08 A2997 RMK AO2 SLP149 T01170078 58010